createdAt,value
2022-08-05T00:00:17.257Z,62.59
2022-08-05T00:02:50.856Z,60.37
2022-08-05T00:06:03.179Z,61.08
2022-08-05T00:08:32.966Z,60.60
2022-08-05T00:10:56.530Z,61.15
2022-08-05T00:13:38.250Z,60.51
2022-08-05T00:16:08.718Z,60.87
2022-08-05T00:18:36.223Z,60.73
2022-08-05T00:21:06.887Z,60.28
2022-08-05T00:23:45.973Z,60.06
2022-08-05T00:26:20.212Z,60.79
2022-08-05T00:28:46.837Z,61.78
2022-08-05T00:31:16.464Z,61.14
2022-08-05T00:34:55.196Z,61.50
2022-08-05T00:37:10.275Z,61.58
2022-08-05T00:39:41.634Z,61.25
2022-08-05T00:42:31.699Z,61.62
2022-08-05T00:44:59.391Z,61.23
2022-08-05T00:47:26.343Z,62.75
2022-08-05T00:50:12.824Z,62.18
2022-08-05T00:52:40.114Z,63.55
2022-08-05T00:55:06.907Z,62.18
2022-08-05T00:57:55.256Z,63.19
2022-08-05T01:00:20.112Z,63.66
2022-08-05T01:02:50.201Z,63.17
2022-08-05T01:05:16.900Z,62.42
2022-08-05T01:08:40.111Z,62.71
2022-08-05T01:10:41.995Z,63.46
2022-08-05T01:13:27.537Z,63.49
2022-08-05T01:16:26.134Z,63.33
2022-08-05T01:19:00.819Z,63.07
2022-08-05T01:21:38.080Z,64.97
2022-08-05T01:24:22.048Z,63.28
2022-08-05T01:27:25.548Z,63.78
2022-08-05T01:29:56.244Z,63.92
2022-08-05T01:32:27.540Z,63.96
2022-08-05T01:34:58.667Z,63.28
2022-08-05T01:37:55.177Z,65.24
2022-08-05T01:40:28.960Z,64.14
2022-08-05T01:42:59.016Z,64.63
2022-08-05T01:45:27.786Z,64.56
2022-08-05T01:48:03.199Z,64.68
2022-08-05T01:50:39.965Z,64.89
2022-08-05T01:53:13.014Z,65.29
2022-08-05T01:55:43.340Z,65.63
2022-08-05T01:58:15.716Z,65.90
2022-08-05T02:00:49.359Z,65.59
2022-08-05T02:03:31.795Z,66.08
2022-08-05T02:06:03.392Z,65.89
2022-08-05T02:08:31.635Z,66.07
2022-08-05T02:11:12.574Z,65.46
2022-08-05T02:13:55.136Z,66.09
2022-08-05T02:16:27.589Z,65.69
2022-08-05T02:19:15.831Z,65.75
2022-08-05T02:21:52.428Z,66.64
2022-08-05T02:24:23.388Z,66.87
2022-08-05T02:26:54.939Z,66.64
2022-08-05T02:29:59.233Z,66.41
2022-08-05T02:32:19.875Z,66.47
2022-08-05T02:34:54.937Z,66.92
2022-08-05T02:37:23.789Z,68.42
2022-08-05T02:39:52.580Z,68.55
2022-08-05T02:42:25.818Z,67.58
2022-08-05T02:44:53.252Z,68.35
2022-08-05T02:47:21.576Z,67.68
2022-08-05T02:49:49.095Z,68.54
2022-08-05T02:52:29.798Z,68.14
2022-08-05T02:54:58.622Z,68.48
2022-08-05T02:58:09.458Z,68.34
2022-08-05T03:00:17.246Z,67.68
2022-08-05T03:02:46.639Z,68.22
2022-08-05T03:05:14.576Z,68.79
2022-08-05T03:08:06.811Z,68.36
2022-08-05T03:10:29.061Z,70.30
2022-08-05T03:15:23.507Z,68.03
2022-08-05T03:17:53.918Z,67.85
2022-08-05T03:20:22.034Z,69.01
2022-08-05T03:22:50.588Z,69.88
2022-08-05T03:25:32.512Z,69.34
2022-08-05T03:28:08.938Z,70.92
2022-08-05T03:30:36.793Z,71.80
2022-08-05T03:33:06.362Z,70.96
2022-08-05T03:35:41.022Z,70.23
2022-08-05T03:38:10.405Z,71.29
2022-08-05T03:40:41.115Z,72.16
2022-08-05T03:43:15.975Z,71.42
2022-08-05T03:45:59.518Z,70.62
2022-08-05T03:48:29.233Z,70.74
2022-08-05T03:52:34.876Z,71.13
2022-08-05T03:55:51.171Z,71.20
2022-08-05T03:57:15.966Z,70.72
2022-08-05T04:00:05.763Z,70.78
2022-08-05T04:02:45.204Z,70.44
2022-08-05T04:05:24.556Z,70.40
2022-08-05T04:07:57.987Z,71.92
2022-08-05T04:10:27.772Z,70.41
2022-08-05T04:12:58.757Z,70.38
2022-08-05T04:15:28.001Z,71.05
2022-08-05T04:18:02.081Z,70.80
2022-08-05T04:20:28.738Z,72.16
2022-08-05T04:22:55.284Z,71.87
2022-08-05T04:25:38.437Z,71.33
2022-08-05T04:28:11.377Z,70.96
2022-08-05T04:30:39.656Z,71.31
2022-08-05T04:33:06.338Z,71.49
2022-08-05T04:36:16.625Z,71.53
2022-08-05T04:38:21.037Z,71.71
2022-08-05T04:40:50.971Z,72.30
2022-08-05T04:43:17.891Z,72.76
2022-08-05T04:45:55.596Z,74.31
2022-08-05T04:48:27.570Z,73.38
2022-08-05T04:51:01.637Z,73.32
2022-08-05T04:53:33.347Z,73.14
2022-08-05T04:56:32.931Z,73.92
2022-08-05T04:58:49.250Z,73.53
2022-08-05T05:01:15.944Z,73.83
2022-08-05T05:04:02.416Z,73.69
2022-08-05T05:06:39.072Z,73.15
2022-08-05T05:09:14.310Z,73.61
2022-08-05T05:11:54.480Z,74.71
2022-08-05T05:14:27.928Z,73.61
2022-08-05T05:16:58.734Z,73.69
2022-08-05T05:19:27.383Z,72.57
2022-08-05T05:22:03.590Z,71.89
2022-08-05T05:24:56.442Z,71.20
2022-08-05T05:27:41.396Z,70.63
2022-08-05T05:30:15.693Z,70.18
2022-08-05T05:32:56.807Z,69.51
2022-08-05T05:35:24.371Z,68.00
2022-08-05T05:37:59.726Z,67.71
2022-08-05T05:40:28.678Z,67.67
2022-08-05T05:42:57.584Z,67.04
2022-08-05T05:45:24.831Z,65.97
2022-08-05T05:48:05.618Z,65.20
2022-08-05T05:50:35.742Z,64.17
2022-08-05T05:53:21.496Z,63.50
2022-08-05T05:55:52.364Z,62.56
2022-08-05T05:58:30.272Z,61.77
2022-08-05T06:01:04.881Z,59.81
2022-08-05T06:04:00.664Z,60.31
2022-08-05T06:06:31.210Z,59.14
2022-08-05T06:08:59.820Z,58.92
2022-08-05T06:11:26.349Z,58.24
2022-08-05T06:13:55.815Z,56.80
2022-08-05T06:16:30.547Z,56.63
2022-08-05T06:19:05.377Z,55.98
2022-08-05T06:21:36.747Z,56.25
2022-08-05T06:24:11.402Z,54.95
2022-08-05T06:26:51.201Z,51.82
2022-08-05T06:29:26.488Z,51.72
2022-08-05T06:32:21.020Z,51.14
2022-08-05T06:34:53.537Z,51.52
2022-08-05T06:37:39.443Z,51.66
2022-08-05T06:40:09.885Z,50.08
2022-08-05T06:42:36.982Z,49.50
2022-08-05T06:45:08.661Z,48.49
2022-08-05T06:48:36.207Z,49.52
2022-08-05T06:50:23.054Z,50.05
2022-08-05T06:52:58.777Z,49.58
2022-08-05T06:55:36.487Z,48.58
2022-08-05T06:58:29.593Z,48.44
2022-08-05T07:00:51.310Z,46.35
2022-08-05T07:03:18.482Z,47.10
2022-08-05T07:05:46.429Z,46.67
2022-08-05T07:08:13.390Z,45.96
2022-08-05T07:10:53.201Z,46.54
2022-08-05T07:13:58.457Z,45.73
2022-08-05T07:17:56.545Z,46.08
2022-08-05T07:22:28.233Z,42.67
2022-08-05T07:25:23.803Z,42.10
2022-08-05T07:27:58.373Z,43.26
2022-08-05T07:30:33.738Z,42.67
2022-08-05T07:33:09.255Z,43.36
2022-08-05T07:36:01.995Z,43.00
2022-08-05T07:38:34.420Z,41.58
2022-08-05T07:42:07.098Z,41.85
2022-08-05T07:43:59.136Z,40.64
2022-08-05T07:46:26.963Z,38.33
2022-08-05T07:49:02.504Z,39.89
2022-08-05T07:51:40.208Z,39.45
2022-08-05T07:54:10.050Z,39.40
2022-08-05T07:56:39.230Z,39.76
2022-08-05T07:59:38.808Z,38.84
2022-08-05T08:02:10.572Z,39.12
2022-08-05T08:04:45.230Z,36.99
2022-08-05T08:07:12.835Z,36.91
2022-08-05T08:09:39.368Z,36.66
2022-08-05T08:12:15.911Z,36.30
2022-08-05T08:14:52.743Z,36.79
2022-08-05T08:17:19.608Z,37.67
2022-08-05T08:20:21.697Z,38.04
2022-08-05T08:22:35.494Z,37.50
2022-08-05T08:25:02.774Z,36.33
2022-08-05T08:27:40.021Z,36.79
2022-08-05T08:30:28.520Z,34.99
2022-08-05T08:33:02.411Z,35.01
2022-08-05T08:35:35.183Z,34.73
2022-08-05T08:38:07.855Z,34.76
2022-08-05T08:40:35.874Z,33.89
2022-08-05T08:45:16.248Z,33.64
2022-08-05T08:45:52.770Z,31.86
2022-08-05T08:48:22.362Z,34.30
2022-08-05T08:52:01.853Z,34.68
2022-08-05T08:53:53.995Z,33.64
2022-08-05T08:56:22.196Z,34.44
2022-08-05T08:58:49.580Z,34.82
2022-08-05T09:01:19.013Z,32.61
2022-08-05T09:03:54.507Z,33.46
2022-08-05T09:06:24.262Z,34.33
2022-08-05T09:08:55.385Z,33.56
2022-08-05T09:11:51.783Z,32.38
2022-08-05T09:14:59.091Z,32.78
2022-08-05T09:16:56.699Z,32.17
2022-08-05T09:19:27.678Z,32.02
2022-08-05T09:22:22.209Z,30.58
2022-08-05T09:24:44.803Z,30.89
2022-08-05T09:28:05.427Z,29.14
2022-08-05T09:30:24.077Z,31.38
2022-08-05T09:32:51.222Z,30.10
2022-08-05T09:35:26.459Z,30.52
2022-08-05T09:38:12.516Z,28.47
2022-08-05T09:40:51.901Z,28.37
2022-08-05T09:43:41.619Z,29.59
2022-08-05T09:46:30.683Z,30.32
2022-08-05T09:49:08.358Z,31.06
2022-08-05T09:51:45.011Z,28.53
2022-08-05T09:54:21.423Z,27.00
2022-08-05T09:56:55.534Z,26.85
2022-08-05T09:59:24.488Z,27.23
2022-08-05T10:01:55.531Z,26.79
2022-08-05T10:04:38.638Z,27.59
2022-08-05T10:07:32.019Z,28.01
2022-08-05T10:10:14.283Z,26.89
2022-08-05T10:12:51.582Z,27.14
2022-08-05T10:15:21.035Z,27.36
2022-08-05T10:18:08.760Z,26.72
2022-08-05T10:20:48.753Z,25.91
2022-08-05T10:23:55.233Z,25.62
2022-08-05T10:26:14.007Z,25.68
2022-08-05T10:28:46.355Z,25.91
2022-08-05T10:32:53.122Z,24.51
2022-08-05T10:34:02.403Z,25.82
2022-08-05T10:36:29.871Z,26.32
2022-08-05T10:39:05.107Z,26.72
2022-08-05T10:42:01.003Z,25.85
2022-08-05T10:44:29.453Z,26.75
2022-08-05T10:46:56.960Z,25.78
2022-08-05T10:49:27.531Z,26.75
2022-08-05T10:52:03.222Z,27.46
2022-08-05T10:55:06.840Z,23.80
2022-08-05T10:57:35.002Z,23.82
2022-08-05T11:00:23.100Z,28.23
2022-08-05T11:03:24.893Z,26.14
2022-08-05T11:06:16.135Z,25.11
2022-08-05T11:09:32.211Z,23.39
2022-08-05T11:12:23.551Z,22.88
2022-08-05T11:15:19.338Z,22.69
2022-08-05T11:17:57.268Z,22.53
2022-08-05T11:20:44.314Z,22.24
2022-08-05T11:23:33.444Z,24.73
2022-08-05T11:26:28.610Z,24.33
2022-08-05T11:29:06.714Z,23.78
2022-08-05T11:31:58.871Z,25.03
2022-08-05T11:34:39.873Z,23.48
2022-08-05T11:38:37.243Z,21.06
2022-08-05T11:41:00.815Z,21.89
2022-08-05T11:44:00.918Z,23.08
2022-08-05T11:46:32.319Z,22.67
2022-08-05T11:49:01.457Z,23.31
2022-08-05T11:51:44.667Z,22.24
2022-08-05T11:54:33.175Z,22.12
2022-08-05T11:57:02.262Z,21.81
2022-08-05T11:59:49.357Z,21.68
2022-08-05T12:02:29.855Z,21.45
2022-08-05T12:05:07.328Z,21.60
2022-08-05T12:08:09.060Z,21.35
2022-08-05T12:10:43.508Z,21.85
2022-08-05T12:13:18.664Z,22.81
2022-08-05T12:16:14.590Z,23.57
2022-08-05T12:18:49.449Z,22.21
2022-08-05T12:21:29.822Z,21.60
2022-08-05T12:24:08.579Z,20.21
2022-08-05T12:26:36.888Z,21.12
2022-08-05T12:29:09.377Z,20.01
2022-08-05T12:31:41.538Z,19.21
2022-08-05T12:34:20.519Z,19.23
2022-08-05T12:36:49.783Z,20.78
2022-08-05T12:39:17.682Z,21.92
2022-08-05T12:41:45.750Z,22.26
2022-08-05T12:44:28.531Z,20.95
2022-08-05T12:47:00.898Z,20.50
2022-08-05T12:50:03.353Z,21.77
2022-08-05T12:52:30.414Z,21.73
2022-08-05T12:55:02.203Z,19.66
2022-08-05T12:58:51.531Z,19.72
2022-08-05T13:02:00.182Z,19.37
2022-08-05T13:03:14.677Z,19.11
2022-08-05T13:05:41.529Z,18.76
2022-08-05T13:08:08.932Z,19.19
2022-08-05T13:10:48.790Z,19.25
2022-08-05T13:14:06.602Z,20.15
2022-08-05T13:16:12.675Z,20.66
2022-08-05T13:19:01.456Z,20.10
2022-08-05T13:21:47.724Z,22.39
2022-08-05T13:24:36.248Z,20.16
2022-08-05T13:27:03.831Z,22.08
2022-08-05T13:29:37.762Z,21.22
2022-08-05T13:32:05.512Z,21.77
2022-08-05T13:34:32.683Z,22.40
2022-08-05T13:37:00.262Z,21.27
2022-08-05T13:40:13.761Z,20.11
2022-08-05T13:42:15.249Z,19.16
2022-08-05T13:44:45.839Z,18.43
2022-08-05T13:47:34.583Z,18.62
2022-08-05T13:50:04.598Z,19.99
2022-08-05T13:52:35.489Z,19.51
2022-08-05T13:55:02.960Z,17.90
2022-08-05T13:57:51.483Z,17.88
2022-08-05T14:00:27.505Z,17.46
2022-08-05T14:02:56.444Z,17.59
2022-08-05T14:05:48.278Z,17.12
2022-08-05T14:08:20.432Z,16.90
2022-08-05T14:10:48.264Z,16.88
2022-08-05T14:13:15.418Z,17.12
2022-08-05T14:16:08.520Z,17.55
2022-08-05T14:18:28.880Z,17.64
2022-08-05T14:20:55.459Z,16.50
2022-08-05T14:23:25.109Z,15.85
2022-08-05T14:25:57.976Z,15.39
2022-08-05T14:28:28.702Z,14.79
2022-08-05T14:30:56.621Z,13.95
2022-08-05T14:33:23.877Z,13.93
2022-08-05T14:35:51.715Z,14.27
2022-08-05T14:38:31.987Z,14.51
2022-08-05T14:41:06.638Z,14.63
2022-08-05T14:44:01.689Z,15.32
2022-08-05T14:46:29.110Z,13.76
2022-08-05T14:48:57.255Z,13.11
2022-08-05T14:51:24.309Z,13.82
2022-08-05T14:54:26.449Z,13.70
2022-08-05T14:56:44.032Z,13.81
2022-08-05T14:59:11.538Z,12.91
2022-08-05T15:01:48.357Z,13.18
2022-08-05T15:04:17.392Z,12.59
2022-08-05T15:06:49.370Z,11.86
2022-08-05T15:09:51.618Z,12.37
2022-08-05T15:12:08.903Z,12.22
2022-08-05T15:14:48.136Z,12.19
2022-08-05T15:17:45.580Z,11.19
2022-08-05T15:20:04.907Z,13.99
2022-08-05T15:22:31.587Z,14.15
2022-08-05T15:24:59.307Z,14.62
2022-08-05T15:27:26.115Z,15.37
2022-08-05T15:29:59.159Z,16.94
2022-08-05T15:32:27.520Z,15.48
2022-08-05T15:34:55.467Z,16.32
2022-08-05T15:38:32.299Z,16.88
2022-08-05T15:40:59.159Z,18.15
2022-08-05T15:43:01.616Z,17.98
2022-08-05T15:45:39.012Z,16.41
2022-08-05T15:48:05.834Z,15.88
2022-08-05T15:50:33.537Z,16.42
2022-08-05T15:53:05.136Z,16.38
2022-08-05T15:56:01.805Z,18.00
2022-08-05T15:58:19.323Z,17.03
2022-08-05T16:01:03.546Z,17.35
2022-08-05T16:03:36.364Z,18.33
2022-08-05T16:06:08.767Z,17.94
2022-08-05T16:08:38.565Z,18.24
2022-08-05T16:11:05.318Z,18.49
2022-08-05T16:13:34.758Z,17.52
2022-08-05T16:16:03.330Z,16.87
2022-08-05T16:18:30.948Z,17.13
2022-08-05T16:20:58.592Z,17.12
2022-08-05T16:23:28.402Z,19.11
2022-08-05T16:26:14.920Z,20.04
2022-08-05T16:28:42.050Z,19.56
2022-08-05T16:31:10.506Z,18.80
2022-08-05T16:33:41.537Z,20.48
2022-08-05T16:36:09.090Z,20.63
2022-08-05T16:38:36.987Z,20.43
2022-08-05T16:42:24.142Z,20.11
2022-08-05T16:43:56.440Z,18.90
2022-08-05T16:46:24.603Z,18.96
2022-08-05T16:48:51.977Z,18.00
2022-08-05T16:51:19.317Z,17.97
2022-08-05T16:54:03.885Z,17.79
2022-08-05T16:56:36.910Z,18.85
2022-08-05T16:59:10.137Z,17.96
2022-08-05T17:01:53.177Z,17.69
2022-08-05T17:04:22.005Z,18.24
2022-08-05T17:06:53.384Z,18.25
2022-08-05T17:09:20.493Z,18.14
2022-08-05T17:11:48.391Z,17.51
2022-08-05T17:14:34.457Z,18.11
2022-08-05T17:17:04.920Z,19.21
2022-08-05T17:19:31.568Z,20.83
2022-08-05T17:21:58.565Z,20.98
2022-08-05T17:24:35.126Z,22.22
2022-08-05T17:27:07.134Z,23.99
2022-08-05T17:29:41.142Z,23.91
2022-08-05T17:32:16.706Z,25.07
2022-08-05T17:34:46.240Z,25.95
2022-08-05T17:37:29.532Z,25.17
2022-08-05T17:40:10.196Z,25.98
2022-08-05T17:42:41.789Z,27.37
2022-08-05T17:45:20.379Z,29.43
2022-08-05T17:47:54.037Z,27.19
2022-08-05T17:50:28.504Z,27.91
2022-08-05T17:52:59.064Z,27.02
2022-08-05T17:55:37.400Z,28.56
2022-08-05T17:58:12.564Z,27.61
2022-08-05T18:00:47.456Z,27.70
2022-08-05T18:03:33.256Z,28.31
2022-08-05T18:06:06.142Z,29.23
2022-08-05T18:08:44.092Z,31.50
2022-08-05T18:11:11.278Z,31.53
2022-08-05T18:13:51.631Z,31.23
2022-08-05T18:16:20.558Z,32.71
2022-08-05T18:18:48.083Z,33.40
2022-08-05T18:21:19.862Z,33.39
2022-08-05T18:23:53.774Z,32.71
2022-08-05T18:26:27.449Z,32.45
2022-08-05T18:28:56.903Z,33.88
2022-08-05T18:31:24.248Z,34.39
2022-08-05T18:33:52.120Z,34.45
2022-08-05T18:36:19.180Z,34.89
2022-08-05T18:38:46.498Z,35.89
2022-08-05T18:41:56.463Z,36.80
2022-08-05T18:44:06.523Z,37.49
2022-08-05T18:46:34.621Z,37.08
2022-08-05T18:49:23.703Z,37.11
2022-08-05T18:52:15.827Z,36.94
2022-08-05T18:54:45.868Z,37.69
2022-08-05T18:57:15.367Z,37.87
2022-08-05T19:00:01.777Z,38.55
2022-08-05T19:02:29.644Z,38.26
2022-08-05T19:05:02.193Z,38.12
2022-08-05T19:07:49.864Z,37.56
2022-08-05T19:10:26.597Z,38.13
2022-08-05T19:12:58.476Z,38.65
2022-08-05T19:15:59.346Z,40.49
2022-08-05T19:18:21.944Z,39.22
2022-08-05T19:20:52.347Z,39.98
2022-08-05T19:24:06.053Z,40.04
2022-08-05T19:26:09.417Z,41.02
2022-08-05T19:28:42.095Z,41.79
2022-08-05T19:31:13.322Z,41.25
2022-08-05T19:33:48.453Z,40.94
2022-08-05T19:36:23.013Z,42.34
2022-08-05T19:38:49.535Z,42.93
2022-08-05T19:41:16.107Z,43.24
2022-08-05T19:44:05.475Z,43.22
2022-08-05T19:46:30.976Z,43.31
2022-08-05T19:49:03.161Z,42.44
2022-08-05T19:52:09.411Z,43.17
2022-08-05T19:54:31.285Z,43.56
2022-08-05T19:56:59.789Z,44.91
2022-08-05T19:59:54.586Z,44.92
2022-08-05T20:02:17.658Z,45.50
2022-08-05T20:04:45.797Z,45.35
2022-08-05T20:07:13.878Z,44.27
2022-08-05T20:09:55.076Z,45.21
2022-08-05T20:12:25.669Z,45.39
2022-08-05T20:14:53.229Z,44.77
2022-08-05T20:17:23.626Z,46.09
2022-08-05T20:19:57.401Z,47.13
2022-08-05T20:22:26.970Z,44.42
2022-08-05T20:24:55.415Z,44.87
2022-08-05T20:27:26.621Z,46.23
2022-08-05T20:29:57.873Z,43.97
2022-08-05T20:32:26.084Z,45.72
2022-08-05T20:34:52.775Z,45.00
2022-08-05T20:38:05.010Z,46.89
2022-08-05T20:40:06.820Z,45.91
2022-08-05T20:42:33.449Z,45.44
2022-08-05T20:45:02.640Z,45.73
2022-08-05T20:47:32.240Z,45.67
2022-08-05T20:49:59.507Z,46.40
2022-08-05T20:52:26.569Z,47.93
2022-08-05T20:54:59.579Z,48.48
2022-08-05T20:57:43.038Z,47.48
2022-08-05T21:00:41.563Z,47.14
2022-08-05T21:03:06.196Z,46.83
2022-08-05T21:05:47.581Z,47.82
2022-08-05T21:08:21.087Z,47.50
2022-08-05T21:10:53.568Z,48.45
2022-08-05T21:13:37.796Z,49.44
2022-08-05T21:16:06.896Z,48.56
2022-08-05T21:18:34.257Z,50.20
2022-08-05T21:21:02.439Z,49.26
2022-08-05T21:23:28.952Z,49.38
2022-08-05T21:26:04.238Z,48.73
2022-08-05T21:28:47.912Z,48.83
2022-08-05T21:31:18.350Z,49.27
2022-08-05T21:33:47.551Z,49.08
2022-08-05T21:36:19.041Z,50.26
2022-08-05T21:38:54.774Z,50.42
2022-08-05T21:41:21.547Z,50.30
2022-08-05T21:44:01.704Z,49.96
2022-08-05T21:46:31.058Z,50.69
2022-08-05T21:48:59.864Z,50.97
2022-08-05T21:52:22.105Z,50.92
2022-08-05T21:54:13.171Z,51.08
2022-08-05T21:56:44.204Z,51.80
2022-08-05T21:59:24.082Z,51.44
2022-08-05T22:01:54.572Z,50.96
2022-08-05T22:04:25.382Z,50.91
2022-08-05T22:06:52.577Z,50.11
2022-08-05T22:09:21.083Z,49.60
2022-08-05T22:11:48.973Z,49.31
2022-08-05T22:14:35.279Z,49.04
2022-08-05T22:17:06.614Z,48.95
2022-08-05T22:20:03.575Z,48.88
2022-08-05T22:22:26.801Z,48.74
2022-08-05T22:25:21.035Z,48.81
2022-08-05T22:28:08.827Z,49.23
2022-08-05T22:30:44.204Z,49.51
2022-08-05T22:33:57.699Z,49.10
2022-08-05T22:36:14.465Z,49.24
2022-08-05T22:38:42.569Z,49.67
2022-08-05T22:41:10.205Z,51.81
2022-08-05T22:43:38.279Z,49.72
2022-08-05T22:46:13.255Z,50.05
2022-08-05T22:48:40.969Z,50.06
2022-08-05T22:51:07.724Z,50.04
2022-08-05T22:53:35.580Z,49.85
2022-08-05T22:56:02.816Z,49.76
2022-08-05T22:58:29.323Z,49.82
2022-08-05T23:00:56.960Z,49.54
2022-08-05T23:03:59.078Z,49.43
2022-08-05T23:06:10.498Z,49.82
2022-08-05T23:08:37.044Z,49.84
2022-08-05T23:11:03.599Z,50.47
2022-08-05T23:13:30.121Z,50.13
2022-08-05T23:15:56.827Z,49.75
2022-08-05T23:18:23.504Z,50.12
2022-08-05T23:20:50.051Z,51.05
2022-08-05T23:23:16.659Z,50.52
2022-08-05T23:25:53.008Z,51.10
2022-08-05T23:28:28.735Z,50.43
2022-08-05T23:30:56.373Z,50.57
2022-08-05T23:34:04.983Z,50.56
2022-08-05T23:36:39.876Z,50.94
2022-08-05T23:39:17.491Z,50.86
2022-08-05T23:41:59.089Z,51.15
2022-08-05T23:44:28.056Z,50.86
2022-08-05T23:46:58.780Z,50.78
2022-08-05T23:49:33.919Z,50.90
2022-08-05T23:52:21.764Z,51.55
2022-08-05T23:54:52.540Z,51.45
2022-08-05T23:57:19.283Z,51.38
